Briefing drone pour Givry

Rechercher une autre localisation

Conditions de vol :


Nous sommes le : Dimanche 04 décembre 2022
Il est 19:38 UTC (20:38 LT)

Lever de soleil : 06:42 UTC (07:42 LT)
Coucher de soleil : 16:19 UTC (17:19 LT)

Météo

L'essentiel des conditions de vol

VIGILANCE MÉTÉO FRANCE - Saône-et-Loire (71)
Pas de vigilances particulieres
METAR de LFLH
LFLH 041800Z AUTO VRB01KT 4900 BR OVC007/// ///TCU 04/03 Q1012

Date d'émission: 04/12/2022
Heure d'émission: 18:00 UTC
Vent: Variable 1 KT (2 km/h)
Visibilité horizontale: 4900 m
Plafond :
- Couvert à 700ft (213m)
Température: 4 °C
Point de rosée: 3 °C
Humidité: 93%
Pression (QNH): 1012 hPa
Conditions: Brume
Prévision 24h pour Chalon-sur-saone (5 km)
Vent : 302° pour 1 KT (4 km/h)
Temperature Maxi: 6 °C
Temperature Min: 6 °C
Humidité : 75%
Condition : Couvert



Warning: count(): Parameter must be an array or an object that implements Countable in /homepages/6/d509196549/htdocs/droneoxygene/briefing.php on line 743
WEBCAM POUR GIVRY

Réglementation

Voler en sécurité

CARTES AERONAUTIQUE 1/500.000
CARTE AZBA (Reseau basse altitude)
CARTES VAC (LFLH)
SUP AIP




Chargement des AIP...
NOTAM (GIVRY + Terrain à proximité / FIR )




Chargement des NOTAMS...
CONTACT PREFECTURE 71


Avertissement : Les données mises à disposition sont indicatives. Oxygène Drone ne pourra être tenu responsable de dégâts causés aux biens et aux personnes.